EZY86NF EGAA-EGPH
Flight info
| Callsign | EZY86NF |
|---|---|
| Flight time | 0h 31m |
| Altitude | 19000 |
| Route | BLACA P600 TUNSO |
| Aircraft | A320/M-SDE3FGHIRWY/LB1 |
Departure
| Time | 2026-04-23 11:46 |
|---|---|
| Airport | Belfast International Airport (EGAA) |
Arrival
| Time | 2026-04-23 12:17 |
|---|---|
| Airport | Edinburgh Airport (EGPH) |
| Time | Latitude | Longitude | Altitude | Speed | Heading |
|---|---|---|---|---|---|
| 2026-04-23 11:19 | 54.66146 | -6.21381 | 272 ft | 0 kts | 245° |
| 2026-04-23 11:34 | 54.66153 | -6.21356 | 272 ft | 4 kts | 238° |
| 2026-04-23 11:35 | 54.66169 | -6.21322 | 273 ft | 4 kts | 210° |
| 2026-04-23 11:35 | 54.66190 | -6.21314 | 276 ft | 2 kts | 156° |
| 2026-04-23 11:35 | 54.66192 | -6.21315 | 276 ft | 0 kts | 155° |
| 2026-04-23 11:38 | 54.66173 | -6.21299 | 274 ft | 6 kts | 155° |
| 2026-04-23 11:39 | 54.66123 | -6.21259 | 272 ft | 9 kts | 155° |
| 2026-04-23 11:39 | 54.66060 | -6.21216 | 272 ft | 11 kts | 172° |
| 2026-04-23 11:39 | 54.66010 | -6.21293 | 272 ft | 10 kts | 243° |
| 2026-04-23 11:39 | 54.65982 | -6.21396 | 277 ft | 9 kts | 245° |
| 2026-04-23 11:40 | 54.65947 | -6.21524 | 275 ft | 13 kts | 245° |
| 2026-04-23 11:40 | 54.65911 | -6.21657 | 272 ft | 12 kts | 245° |
| 2026-04-23 11:40 | 54.65878 | -6.21782 | 272 ft | 13 kts | 245° |
| 2026-04-23 11:40 | 54.65838 | -6.21928 | 272 ft | 13 kts | 245° |
| 2026-04-23 11:41 | 54.65802 | -6.22061 | 273 ft | 12 kts | 245° |
| 2026-04-23 11:41 | 54.65776 | -6.22187 | 272 ft | 11 kts | 256° |
| 2026-04-23 11:41 | 54.65764 | -6.22332 | 272 ft | 13 kts | 263° |
| 2026-04-23 11:41 | 54.65753 | -6.22481 | 272 ft | 12 kts | 263° |
| 2026-04-23 11:42 | 54.65747 | -6.22577 | 272 ft | 12 kts | 265° |
| 2026-04-23 11:42 | 54.65742 | -6.22716 | 272 ft | 11 kts | 266° |
| 2026-04-23 11:42 | 54.65717 | -6.22870 | 273 ft | 9 kts | 243° |
| 2026-04-23 11:42 | 54.65680 | -6.22971 | 272 ft | 11 kts | 233° |
| 2026-04-23 11:43 | 54.65645 | -6.23051 | 272 ft | 13 kts | 233° |
| 2026-04-23 11:43 | 54.65593 | -6.23174 | 272 ft | 12 kts | 233° |
| 2026-04-23 11:43 | 54.65518 | -6.23328 | 272 ft | 12 kts | 211° |
| 2026-04-23 11:43 | 54.65467 | -6.23363 | 272 ft | 11 kts | 201° |
| 2026-04-23 11:44 | 54.65398 | -6.23407 | 272 ft | 10 kts | 192° |
| 2026-04-23 11:44 | 54.65318 | -6.23358 | 272 ft | 14 kts | 149° |
| 2026-04-23 11:44 | 54.65307 | -6.23226 | 276 ft | 12 kts | 66° |
| 2026-04-23 11:44 | 54.65325 | -6.23162 | 272 ft | 0 kts | 64° |
| 2026-04-23 11:45 | 54.65333 | -6.23131 | 272 ft | 18 kts | 65° |
| 2026-04-23 11:45 | 54.65505 | -6.22488 | 272 ft | 96 kts | 65° |
| 2026-04-23 11:45 | 54.65874 | -6.21101 | 285 ft | 153 kts | 65° |
| 2026-04-23 11:45 | 54.66362 | -6.19382 | 777 ft | 163 kts | 67° |
| 2026-04-23 11:46 | 54.66874 | -6.17570 | 1449 ft | 172 kts | 69° |
| 2026-04-23 11:46 | 54.67409 | -6.15677 | 2084 ft | 179 kts | 69° |
| 2026-04-23 11:46 | 54.67966 | -6.13749 | 2695 ft | 183 kts | 69° |
| 2026-04-23 11:46 | 54.68556 | -6.11762 | 3320 ft | 188 kts | 68° |
| 2026-04-23 11:47 | 54.69185 | -6.09691 | 3815 ft | 201 kts | 66° |
| 2026-04-23 11:47 | 54.69824 | -6.07459 | 4309 ft | 215 kts | 74° |
| 2026-04-23 11:47 | 54.70301 | -6.04899 | 4706 ft | 235 kts | 79° |
| 2026-04-23 11:47 | 54.70712 | -6.02016 | 5137 ft | 259 kts | 80° |
| 2026-04-23 11:48 | 54.71178 | -5.98917 | 5798 ft | 271 kts | 78° |
| 2026-04-23 11:48 | 54.71714 | -5.95753 | 6674 ft | 277 kts | 76° |
| 2026-04-23 11:48 | 54.72312 | -5.92552 | 7516 ft | 281 kts | 76° |
| 2026-04-23 11:48 | 54.72954 | -5.89336 | 8386 ft | 284 kts | 75° |
| 2026-04-23 11:49 | 54.73625 | -5.86106 | 9252 ft | 287 kts | 73° |
| 2026-04-23 11:49 | 54.74318 | -5.82835 | 10137 ft | 290 kts | 72° |
| 2026-04-23 11:49 | 54.75017 | -5.79552 | 10760 ft | 302 kts | 72° |
| 2026-04-23 11:49 | 54.75772 | -5.75985 | 11021 ft | 326 kts | 72° |
| 2026-04-23 11:50 | 54.76574 | -5.72179 | 11318 ft | 344 kts | 72° |
| 2026-04-23 11:50 | 54.77396 | -5.68286 | 11934 ft | 351 kts | 72° |
| 2026-04-23 11:50 | 54.78238 | -5.64296 | 12656 ft | 355 kts | 73° |
| 2026-04-23 11:50 | 54.79094 | -5.60244 | 13388 ft | 358 kts | 71° |
| 2026-04-23 11:51 | 54.79948 | -5.56204 | 14457 ft | 347 kts | 72° |
| 2026-04-23 11:51 | 54.80760 | -5.52366 | 15662 ft | 335 kts | 71° |
| 2026-04-23 11:51 | 54.81572 | -5.48495 | 15827 ft | 355 kts | 73° |
| 2026-04-23 11:51 | 54.82431 | -5.44361 | 16059 ft | 370 kts | 72° |
| 2026-04-23 11:52 | 54.83313 | -5.40099 | 16537 ft | 378 kts | 72° |
| 2026-04-23 11:52 | 54.84209 | -5.35783 | 17112 ft | 382 kts | 71° |
| 2026-04-23 11:52 | 54.85103 | -5.31474 | 17708 ft | 385 kts | 71° |
| 2026-04-23 11:52 | 54.86020 | -5.27068 | 18312 ft | 389 kts | 71° |
| 2026-04-23 11:53 | 54.87070 | -5.22699 | 18895 ft | 394 kts | 63° |
| 2026-04-23 11:53 | 54.88554 | -5.18654 | 19331 ft | 400 kts | 54° |
| 2026-04-23 11:53 | 54.90446 | -5.15111 | 19464 ft | 401 kts | 43° |
| 2026-04-23 11:53 | 54.92731 | -5.12169 | 19497 ft | 416 kts | 32° |
| 2026-04-23 11:54 | 54.95320 | -5.09835 | 19499 ft | 420 kts | 27° |
| 2026-04-23 11:54 | 54.97945 | -5.07583 | 19495 ft | 421 kts | 27° |
| 2026-04-23 11:54 | 55.00574 | -5.05319 | 19496 ft | 421 kts | 27° |
| 2026-04-23 11:54 | 55.03147 | -5.03094 | 19160 ft | 413 kts | 27° |
| 2026-04-23 11:55 | 55.05719 | -5.00859 | 18586 ft | 411 kts | 27° |
| 2026-04-23 11:55 | 55.08206 | -4.98461 | 18039 ft | 406 kts | 35° |
| 2026-04-23 11:55 | 55.10352 | -4.95305 | 17588 ft | 399 kts | 47° |
| 2026-04-23 11:55 | 55.12045 | -4.91547 | 17463 ft | 389 kts | 59° |
| 2026-04-23 11:56 | 55.13293 | -4.87371 | 17502 ft | 387 kts | 67° |
| 2026-04-23 11:56 | 55.14368 | -4.83115 | 17499 ft | 387 kts | 68° |
| 2026-04-23 11:56 | 55.15454 | -4.78785 | 17463 ft | 388 kts | 68° |
| 2026-04-23 11:56 | 55.16540 | -4.74421 | 16587 ft | 396 kts | 69° |
| 2026-04-23 11:57 | 55.17641 | -4.69962 | 15905 ft | 398 kts | 68° |
| 2026-04-23 11:57 | 55.18722 | -4.65571 | 15649 ft | 387 kts | 67° |
| 2026-04-23 11:57 | 55.19759 | -4.61349 | 15394 ft | 377 kts | 68° |
| 2026-04-23 11:57 | 55.20790 | -4.57147 | 15144 ft | 373 kts | 68° |
| 2026-04-23 11:58 | 55.21815 | -4.52961 | 14891 ft | 372 kts | 68° |
| 2026-04-23 11:58 | 55.22821 | -4.48850 | 14642 ft | 370 kts | 68° |
| 2026-04-23 11:58 | 55.23835 | -4.44693 | 14389 ft | 368 kts | 68° |
| 2026-04-23 11:58 | 55.24844 | -4.40561 | 14118 ft | 367 kts | 68° |
| 2026-04-23 11:59 | 55.25849 | -4.36451 | 13880 ft | 368 kts | 68° |
| 2026-04-23 11:59 | 55.26860 | -4.32307 | 13622 ft | 368 kts | 69° |
| 2026-04-23 11:59 | 55.27849 | -4.28239 | 13382 ft | 367 kts | 68° |
| 2026-04-23 11:59 | 55.28845 | -4.24123 | 13139 ft | 366 kts | 68° |
| 2026-04-23 12:00 | 55.29836 | -4.20016 | 12880 ft | 364 kts | 69° |
| 2026-04-23 12:00 | 55.30822 | -4.15919 | 12645 ft | 363 kts | 69° |
| 2026-04-23 12:00 | 55.31807 | -4.11835 | 12393 ft | 362 kts | 69° |
| 2026-04-23 12:00 | 55.32788 | -4.07774 | 12155 ft | 361 kts | 69° |
| 2026-04-23 12:01 | 55.33767 | -4.03710 | 11914 ft | 360 kts | 69° |
| 2026-04-23 12:01 | 55.34725 | -3.99715 | 11672 ft | 358 kts | 69° |
| 2026-04-23 12:01 | 55.35690 | -3.95681 | 11431 ft | 357 kts | 69° |
| 2026-04-23 12:01 | 55.36646 | -3.91679 | 11209 ft | 350 kts | 69° |
| 2026-04-23 12:02 | 55.37572 | -3.87799 | 11078 ft | 336 kts | 69° |
| 2026-04-23 12:02 | 55.38458 | -3.84075 | 10952 ft | 323 kts | 69° |
| 2026-04-23 12:02 | 55.39298 | -3.80537 | 10827 ft | 312 kts | 69° |
| 2026-04-23 12:02 | 55.40119 | -3.77074 | 10654 ft | 303 kts | 69° |
| 2026-04-23 12:03 | 55.40922 | -3.73678 | 10481 ft | 297 kts | 69° |
| 2026-04-23 12:03 | 55.41719 | -3.70295 | 10329 ft | 297 kts | 69° |
| 2026-04-23 12:03 | 55.42501 | -3.66972 | 10116 ft | 296 kts | 69° |
| 2026-04-23 12:03 | 55.43286 | -3.63633 | 9923 ft | 295 kts | 69° |
| 2026-04-23 12:04 | 55.44070 | -3.60303 | 9722 ft | 294 kts | 69° |
| 2026-04-23 12:04 | 55.44853 | -3.56972 | 9516 ft | 293 kts | 69° |
| 2026-04-23 12:04 | 55.45629 | -3.53653 | 9324 ft | 292 kts | 69° |
| 2026-04-23 12:04 | 55.46403 | -3.50341 | 9124 ft | 291 kts | 69° |
| 2026-04-23 12:05 | 55.47168 | -3.47074 | 8928 ft | 290 kts | 69° |
| 2026-04-23 12:05 | 55.48089 | -3.43897 | 8726 ft | 291 kts | 53° |
| 2026-04-23 12:05 | 55.49616 | -3.41581 | 8527 ft | 291 kts | 27° |
| 2026-04-23 12:05 | 55.51546 | -3.40590 | 8324 ft | 290 kts | 2° |
| 2026-04-23 12:06 | 55.53503 | -3.41069 | 8108 ft | 288 kts | 338° |
| 2026-04-23 12:06 | 55.55200 | -3.42867 | 7893 ft | 285 kts | 319° |
| 2026-04-23 12:06 | 55.58271 | -3.47304 | 7465 ft | 284 kts | 319° |
| 2026-04-23 12:07 | 55.59783 | -3.49499 | 7290 ft | 276 kts | 319° |
| 2026-04-23 12:07 | 55.61236 | -3.51605 | 7172 ft | 264 kts | 319° |
| 2026-04-23 12:07 | 55.62629 | -3.53624 | 7044 ft | 253 kts | 319° |
| 2026-04-23 12:07 | 55.63956 | -3.55552 | 6883 ft | 246 kts | 318° |
| 2026-04-23 12:08 | 55.65287 | -3.57581 | 6331 ft | 254 kts | 316° |
| 2026-04-23 12:08 | 55.66588 | -3.59678 | 6083 ft | 249 kts | 315° |
| 2026-04-23 12:08 | 55.67845 | -3.61732 | 5920 ft | 242 kts | 315° |
| 2026-04-23 12:08 | 55.69050 | -3.63704 | 5771 ft | 234 kts | 316° |
| 2026-04-23 12:09 | 55.70264 | -3.65573 | 5633 ft | 227 kts | 318° |
| 2026-04-23 12:09 | 55.71464 | -3.67322 | 5490 ft | 220 kts | 319° |
| 2026-04-23 12:09 | 55.72638 | -3.69006 | 5359 ft | 215 kts | 319° |
| 2026-04-23 12:09 | 55.73794 | -3.70666 | 5231 ft | 213 kts | 319° |
| 2026-04-23 12:10 | 55.74948 | -3.72329 | 5091 ft | 212 kts | 319° |
| 2026-04-23 12:10 | 55.76060 | -3.74037 | 4963 ft | 210 kts | 315° |
| 2026-04-23 12:10 | 55.77097 | -3.75840 | 4827 ft | 210 kts | 313° |
| 2026-04-23 12:10 | 55.78245 | -3.77406 | 4705 ft | 210 kts | 337° |
| 2026-04-23 12:11 | 55.79678 | -3.77843 | 4587 ft | 212 kts | 7° |
| 2026-04-23 12:11 | 55.81057 | -3.76996 | 4468 ft | 209 kts | 36° |
| 2026-04-23 12:11 | 55.82044 | -3.75148 | 4368 ft | 204 kts | 61° |
| 2026-04-23 12:11 | 55.82789 | -3.72969 | 4262 ft | 206 kts | 62° |
| 2026-04-23 12:12 | 55.83528 | -3.70821 | 4108 ft | 205 kts | 61° |
| 2026-04-23 12:12 | 55.84273 | -3.68654 | 3998 ft | 205 kts | 60° |
| 2026-04-23 12:12 | 55.85013 | -3.66502 | 3754 ft | 204 kts | 62° |
| 2026-04-23 12:12 | 55.85749 | -3.64359 | 3531 ft | 200 kts | 62° |
| 2026-04-23 12:13 | 55.86473 | -3.62248 | 3231 ft | 199 kts | 62° |
| 2026-04-23 12:13 | 55.87181 | -3.60183 | 2945 ft | 195 kts | 60° |
| 2026-04-23 12:13 | 55.87880 | -3.58142 | 2706 ft | 192 kts | 60° |
| 2026-04-23 12:13 | 55.88558 | -3.56161 | 2441 ft | 180 kts | 61° |
| 2026-04-23 12:14 | 55.89190 | -3.54313 | 2211 ft | 169 kts | 61° |
| 2026-04-23 12:14 | 55.89782 | -3.52578 | 1973 ft | 158 kts | 60° |
| 2026-04-23 12:14 | 55.90331 | -3.50971 | 1770 ft | 147 kts | 60° |
| 2026-04-23 12:14 | 55.90848 | -3.49456 | 1572 ft | 138 kts | 60° |
| 2026-04-23 12:15 | 55.91337 | -3.48021 | 1389 ft | 135 kts | 61° |
| 2026-04-23 12:15 | 55.91821 | -3.46601 | 1194 ft | 134 kts | 59° |
| 2026-04-23 12:15 | 55.92300 | -3.45191 | 1015 ft | 132 kts | 59° |
| 2026-04-23 12:15 | 55.92775 | -3.43796 | 835 ft | 130 kts | 58° |
| 2026-04-23 12:16 | 55.93248 | -3.42406 | 657 ft | 129 kts | 59° |
| 2026-04-23 12:16 | 55.93717 | -3.41027 | 464 ft | 130 kts | 59° |
| 2026-04-23 12:16 | 55.94186 | -3.39646 | 284 ft | 130 kts | 58° |
| 2026-04-23 12:16 | 55.94653 | -3.38280 | 115 ft | 124 kts | 59° |
| 2026-04-23 12:17 | 55.95018 | -3.37196 | 112 ft | 79 kts | 59° |
| 2026-04-23 12:17 | 55.95215 | -3.36616 | 113 ft | 34 kts | 59° |
| 2026-04-23 12:17 | 55.95259 | -3.36447 | 111 ft | 10 kts | 96° |
| 2026-04-23 12:17 | 55.95229 | -3.36389 | 113 ft | 0 kts | 147° |
| 2026-04-23 12:18 | 55.95219 | -3.36378 | 114 ft | 2 kts | 149° |
| 2026-04-23 12:18 | 55.95209 | -3.36367 | 113 ft | 5 kts | 149° |
| 2026-04-23 12:18 | 55.95166 | -3.36322 | 114 ft | 9 kts | 154° |
| 2026-04-23 12:18 | 55.95110 | -3.36358 | 115 ft | 9 kts | 230° |
| 2026-04-23 12:19 | 55.95062 | -3.36393 | 115 ft | 7 kts | 167° |
| 2026-04-23 12:19 | 55.95018 | -3.36400 | 113 ft | 6 kts | 210° |
| 2026-04-23 12:19 | 55.94992 | -3.36463 | 116 ft | 6 kts | 238° |
| 2026-04-23 12:19 | 55.94967 | -3.36535 | 114 ft | 7 kts | 236° |
| 2026-04-23 12:20 | 55.94934 | -3.36525 | 115 ft | 5 kts | 152° |
| 2026-04-23 12:20 | 55.94910 | -3.36500 | 113 ft | 2 kts | 149° |
| 2026-04-23 12:20 | 55.94906 | -3.36496 | 114 ft | 0 kts | 149° |